createdAt,value
2018-05-25T00:00:07.570Z,36.66
2018-05-25T00:01:07.571Z,37.05
2018-05-25T00:02:07.554Z,36.18
2018-05-25T00:03:07.541Z,36.47
2018-05-25T00:04:07.526Z,36.28
2018-05-25T00:05:07.517Z,36.57
2018-05-25T00:06:07.244Z,36.86
2018-05-25T00:07:07.491Z,36.76
2018-05-25T00:08:07.488Z,36.18
2018-05-25T00:09:07.479Z,36.57
2018-05-25T00:10:07.459Z,36.66
2018-05-25T00:11:07.450Z,36.57
2018-05-25T00:12:07.176Z,36.66
2018-05-25T00:13:07.163Z,36.47
2018-05-25T00:14:07.417Z,36.65
2018-05-25T00:15:07.411Z,36.57
2018-05-25T00:16:07.396Z,36.18
2018-05-25T00:17:07.387Z,36.55
2018-05-25T00:18:07.382Z,36.76
2018-05-25T00:19:07.368Z,36.93
2018-05-25T00:20:07.353Z,36.55
2018-05-25T00:21:07.337Z,36.74
2018-05-25T00:22:07.332Z,36.74
2018-05-25T00:23:07.048Z,36.66
2018-05-25T00:24:07.039Z,36.57
2018-05-25T00:25:07.305Z,36.66
2018-05-25T00:26:07.281Z,36.66
2018-05-25T00:27:07.476Z,36.26
2018-05-25T00:28:06.994Z,36.36
2018-05-25T00:29:07.249Z,36.46
2018-05-25T00:30:06.971Z,36.46
2018-05-25T00:31:06.963Z,36.07
2018-05-25T00:32:06.950Z,36.16
2018-05-25T00:33:07.202Z,35.97
2018-05-25T00:34:06.928Z,35.88
2018-05-25T00:35:07.182Z,36.65
2018-05-25T00:36:07.173Z,35.97
2018-05-25T00:37:07.172Z,36.36
2018-05-25T00:38:07.149Z,36.36
2018-05-25T00:39:06.895Z,35.02
2018-05-25T00:40:07.126Z,34.73
2018-05-25T00:41:07.117Z,34.53
2018-05-25T00:42:07.158Z,34.82
2018-05-25T00:43:07.115Z,34.73
2018-05-25T00:44:06.880Z,35.02
2018-05-25T00:45:06.804Z,35.11
2018-05-25T00:46:07.056Z,34.44
2018-05-25T00:47:06.781Z,34.92
2018-05-25T00:48:07.039Z,34.82
2018-05-25T00:49:06.756Z,34.34
2018-05-25T00:50:07.009Z,34.25
2018-05-25T00:51:06.742Z,34.53
2018-05-25T00:52:06.724Z,34.53
2018-05-25T00:53:06.976Z,34.92
2018-05-25T00:54:06.976Z,34.92
2018-05-25T00:55:06.958Z,34.82
2018-05-25T00:56:06.942Z,35.21
2018-05-25T00:57:06.668Z,35.11
2018-05-25T00:58:06.658Z,35.21
2018-05-25T00:59:06.913Z,35.21
2018-05-25T01:00:06.639Z,34.92
2018-05-25T01:01:06.901Z,34.92
2018-05-25T01:02:06.876Z,35.3
2018-05-25T01:03:06.866Z,35.3
2018-05-25T01:04:06.853Z,35.3
2018-05-25T01:05:06.848Z,35.02
2018-05-25T01:06:06.832Z,35.02
2018-05-25T01:07:06.837Z,34.82
2018-05-25T01:08:06.811Z,35.11
2018-05-25T01:09:06.793Z,34.92
2018-05-25T01:10:06.784Z,35.11
2018-05-25T01:11:06.508Z,34.92
2018-05-25T01:12:06.497Z,35.4
2018-05-25T01:13:06.492Z,35.69
2018-05-25T01:14:06.738Z,35.59
2018-05-25T01:15:06.731Z,35.78
2018-05-25T01:16:06.728Z,36.16
2018-05-25T01:17:06.706Z,35.78
2018-05-25T01:18:06.699Z,36.16
2018-05-25T01:19:06.415Z,36.26
2018-05-25T01:20:06.404Z,36.65
2018-05-25T01:21:06.661Z,36.36
2018-05-25T01:22:06.389Z,36.46
2018-05-25T01:23:06.639Z,36.65
2018-05-25T01:24:06.624Z,36.36
2018-05-25T01:25:06.615Z,36.07
2018-05-25T01:26:06.603Z,36.26
2018-05-25T01:27:06.324Z,36.46
2018-05-25T01:28:06.312Z,36.16
2018-05-25T01:29:06.569Z,35.88
2018-05-25T01:30:06.555Z,36.55
2018-05-25T01:31:06.547Z,35.97
2018-05-25T01:32:06.273Z,36.55
2018-05-25T01:33:06.521Z,36.46
2018-05-25T01:34:06.245Z,36.46
2018-05-25T01:35:06.704Z,36.74
2018-05-25T01:36:06.221Z,36.16
2018-05-25T01:37:06.475Z,36.46
2018-05-25T01:38:06.201Z,36.65
2018-05-25T01:39:06.191Z,36.16
2018-05-25T01:40:06.443Z,36.46
2018-05-25T01:41:06.168Z,36.26
2018-05-25T01:42:06.152Z,36.55
2018-05-25T01:43:06.142Z,36.65
2018-05-25T01:44:06.406Z,36.74
2018-05-25T01:45:06.394Z,36.74
2018-05-25T01:46:06.372Z,36.55
2018-05-25T01:47:06.363Z,36.74
2018-05-25T01:48:06.354Z,36.65
2018-05-25T01:49:06.342Z,36.65
2018-05-25T01:50:06.329Z,36.74
2018-05-25T01:51:06.052Z,36.55
2018-05-25T01:52:06.042Z,36.46
2018-05-25T01:53:06.300Z,36.65
2018-05-25T01:54:06.285Z,36.16
2018-05-25T01:55:06.272Z,36.65
2018-05-25T01:56:06.263Z,36.26
2018-05-25T01:57:06.249Z,36.36
2018-05-25T01:58:05.969Z,37.03
2018-05-25T01:59:05.958Z,36.74
2018-05-25T02:00:05.949Z,36.84
2018-05-25T02:01:06.201Z,37.22
2018-05-25T02:02:06.191Z,36.55
2018-05-25T02:03:05.916Z,37.22
2018-05-25T02:04:06.174Z,36.84
2018-05-25T02:05:05.892Z,36.84
2018-05-25T02:06:06.151Z,37.03
2018-05-25T02:07:06.136Z,36.65
2018-05-25T02:08:05.858Z,36.65
2018-05-25T02:09:06.113Z,36.16
2018-05-25T02:10:06.104Z,36.07
2018-05-25T02:11:05.833Z,36.26
2018-05-25T02:12:05.814Z,36.07
2018-05-25T02:13:06.068Z,36.24
2018-05-25T02:14:05.799Z,36.26
2018-05-25T02:15:06.048Z,36.36
2018-05-25T02:16:05.771Z,35.88
2018-05-25T02:17:06.024Z,36.16
2018-05-25T02:18:06.005Z,35.69
2018-05-25T02:19:05.732Z,35.88
2018-05-25T02:20:05.988Z,35.78
2018-05-25T02:21:05.976Z,35.69
2018-05-25T02:22:05.964Z,35.3
2018-05-25T02:23:05.684Z,34.82
2018-05-25T02:24:05.937Z,34.92
2018-05-25T02:25:05.660Z,35.1
2018-05-25T02:26:05.921Z,35.11
2018-05-25T02:27:06.307Z,35.11
2018-05-25T02:28:05.895Z,35
2018-05-25T02:29:05.616Z,35.1
2018-05-25T02:30:05.605Z,34.71
2018-05-25T02:31:05.925Z,34.81
2018-05-25T02:32:05.587Z,34.33
2018-05-25T02:33:05.568Z,34.52
2018-05-25T02:34:05.558Z,34.33
2018-05-25T02:35:05.821Z,34.52
2018-05-25T02:36:05.803Z,34.52
2018-05-25T02:37:05.794Z,34.81
2018-05-25T02:38:05.783Z,34.23
2018-05-25T02:39:05.500Z,34.14
2018-05-25T02:40:05.492Z,34.33
2018-05-25T02:41:05.483Z,34.23
2018-05-25T02:42:05.730Z,33.94
2018-05-25T02:43:05.718Z,33.75
2018-05-25T02:44:05.450Z,33.84
2018-05-25T02:45:05.805Z,33.84
2018-05-25T02:46:05.686Z,33.75
2018-05-25T02:47:05.683Z,33.65
2018-05-25T02:48:05.660Z,33.94
2018-05-25T02:49:05.385Z,33.94
2018-05-25T02:50:05.687Z,33.84
2018-05-25T02:51:05.364Z,33.56
2018-05-25T02:52:05.353Z,33.37
2018-05-25T02:53:05.609Z,33.47
2018-05-25T02:54:05.328Z,33.65
2018-05-25T02:55:05.315Z,33.37
2018-05-25T02:56:05.567Z,33.27
2018-05-25T02:57:05.557Z,33.65
2018-05-25T02:58:05.547Z,33.08
2018-05-25T02:59:05.266Z,33.37
2018-05-25T03:00:05.519Z,33.27
2018-05-25T03:01:05.244Z,33.27
2018-05-25T03:02:05.499Z,33.17
2018-05-25T03:03:05.493Z,33.08
2018-05-25T03:04:05.220Z,33.27
2018-05-25T03:05:05.473Z,33.08
2018-05-25T03:06:05.457Z,33.08
2018-05-25T03:07:05.187Z,33.08
2018-05-25T03:08:05.160Z,33.17
2018-05-25T03:09:05.169Z,33.08
2018-05-25T03:10:05.141Z,32.98
2018-05-25T03:11:05.135Z,32.6
2018-05-25T03:12:05.384Z,32.79
2018-05-25T03:13:05.413Z,32.98
2018-05-25T03:14:05.361Z,32.89
2018-05-25T03:15:05.383Z,32.98
2018-05-25T03:16:05.071Z,33.17
2018-05-25T03:17:05.421Z,33.27
2018-05-25T03:18:05.323Z,33.27
2018-05-25T03:19:05.040Z,33.17
2018-05-25T03:20:05.286Z,33.08
2018-05-25T03:21:05.301Z,33.17
2018-05-25T03:22:05.269Z,33.08
2018-05-25T03:23:05.007Z,33.17
2018-05-25T03:24:05.239Z,33.27
2018-05-25T03:25:05.279Z,33.08
2018-05-25T03:26:04.998Z,33.08
2018-05-25T03:27:05.232Z,33.08
2018-05-25T03:28:05.194Z,32.98
2018-05-25T03:29:05.180Z,33.17
2018-05-25T03:30:05.173Z,33.08
2018-05-25T03:31:05.159Z,33.08
2018-05-25T03:32:05.146Z,33.27
2018-05-25T03:33:05.144Z,33.37
2018-05-25T03:34:04.873Z,33.16
2018-05-25T03:35:04.848Z,33.08
2018-05-25T03:36:04.849Z,33.37
2018-05-25T03:37:05.091Z,33.37
2018-05-25T03:38:04.810Z,33.47
2018-05-25T03:39:05.076Z,33.37
2018-05-25T03:40:04.785Z,33.47
2018-05-25T03:41:05.049Z,33.65
2018-05-25T03:42:05.045Z,33.27
2018-05-25T03:43:05.019Z,33.27
2018-05-25T03:44:04.742Z,33.47
2018-05-25T03:45:04.729Z,33.73
2018-05-25T03:46:04.718Z,33.35
2018-05-25T03:47:05.000Z,33.37
2018-05-25T03:48:04.691Z,33.45
2018-05-25T03:49:05.002Z,33.54
2018-05-25T03:50:04.933Z,33.16
2018-05-25T03:51:04.923Z,33.25
2018-05-25T03:52:04.909Z,33.06
2018-05-25T03:53:04.900Z,33.35
2018-05-25T03:54:04.891Z,32.97
2018-05-25T03:55:04.882Z,33.06
2018-05-25T03:56:04.864Z,33.16
2018-05-25T03:57:04.876Z,33.06
2018-05-25T03:58:04.574Z,33.37
2018-05-25T03:59:04.833Z,32.97
2018-05-25T04:00:04.816Z,32.97
2018-05-25T04:01:04.546Z,32.78
2018-05-25T04:02:04.527Z,32.78
2018-05-25T04:03:04.515Z,32.7
2018-05-25T04:04:04.768Z,32.68
2018-05-25T04:05:04.492Z,32.79
2018-05-25T04:06:04.751Z,32.68
2018-05-25T04:07:04.473Z,32.89
2018-05-25T04:08:04.721Z,32.2
2018-05-25T04:09:04.712Z,32.12
2018-05-25T04:10:04.436Z,32.21
2018-05-25T04:11:04.426Z,32.01
2018-05-25T04:12:04.451Z,32.03
2018-05-25T04:13:04.395Z,32.12
2018-05-25T04:14:04.384Z,32.03
2018-05-25T04:15:04.373Z,32.03
2018-05-25T04:16:04.360Z,32.12
2018-05-25T04:17:04.617Z,31.74
2018-05-25T04:18:04.339Z,31.84
2018-05-25T04:19:04.329Z,31.64
2018-05-25T04:20:04.312Z,31.45
2018-05-25T04:21:04.307Z,31.45
2018-05-25T04:22:04.299Z,31.45
2018-05-25T04:23:04.543Z,31.35
2018-05-25T04:24:04.533Z,31.35
2018-05-25T04:25:04.258Z,31.35
2018-05-25T04:26:04.265Z,31.45
2018-05-25T04:27:04.506Z,31.45
2018-05-25T04:28:04.486Z,31.35
2018-05-25T04:29:04.480Z,31.35
2018-05-25T04:30:04.462Z,31.16
2018-05-25T04:31:04.455Z,31.16
2018-05-25T04:32:04.482Z,30.87
2018-05-25T04:33:04.164Z,30.97
2018-05-25T04:34:04.418Z,30.87
2018-05-25T04:35:04.408Z,30.87
2018-05-25T04:36:04.128Z,30.97
2018-05-25T04:37:04.114Z,31.26
2018-05-25T04:38:04.367Z,30.87
2018-05-25T04:39:04.358Z,31.16
2018-05-25T04:40:04.082Z,31.07
2018-05-25T04:41:04.341Z,30.68
2018-05-25T04:42:04.328Z,30.68
2018-05-25T04:43:04.310Z,30.49
2018-05-25T04:44:04.042Z,30.97
2018-05-25T04:45:04.020Z,30.68
2018-05-25T04:46:04.287Z,30.99
2018-05-25T04:47:04.265Z,30.89
2018-05-25T04:48:04.252Z,30.89
2018-05-25T04:49:04.241Z,31.08
2018-05-25T04:50:03.965Z,30.7
2018-05-25T04:51:03.959Z,30.89
2018-05-25T04:52:04.211Z,30.97
2018-05-25T04:53:04.213Z,30.99
2018-05-25T04:54:03.918Z,30.99
2018-05-25T04:55:04.176Z,30.89
2018-05-25T04:56:04.163Z,31.18
2018-05-25T04:57:04.156Z,31.27
2018-05-25T04:58:03.870Z,31.18
2018-05-25T04:59:03.858Z,31.18
2018-05-25T05:00:03.857Z,31.08
2018-05-25T05:01:03.844Z,30.89
2018-05-25T05:02:04.097Z,31.27
2018-05-25T05:03:04.082Z,31.27
2018-05-25T05:04:03.807Z,31.27
2018-05-25T05:05:04.178Z,31.08
2018-05-25T05:06:03.787Z,31.08
2018-05-25T05:07:04.041Z,31.46
2018-05-25T05:08:04.023Z,31.56
2018-05-25T05:09:04.014Z,31.46
2018-05-25T05:10:04.001Z,31.18
2018-05-25T05:11:03.999Z,31.18
2018-05-25T05:12:03.977Z,31.08
2018-05-25T05:13:03.702Z,31.37
2018-05-25T05:14:03.689Z,31.08
2018-05-25T05:15:03.951Z,31.18
2018-05-25T05:16:03.667Z,30.99
2018-05-25T05:17:03.928Z,31
2018-05-25T05:18:03.916Z,30.99
2018-05-25T05:19:03.645Z,31.29
2018-05-25T05:20:03.623Z,31.56
2018-05-25T05:21:03.876Z,31.77
2018-05-25T05:22:03.868Z,31.67
2018-05-25T05:23:03.654Z,31.67
2018-05-25T05:24:03.584Z,31.87
2018-05-25T05:25:03.566Z,31.77
2018-05-25T05:26:03.553Z,31.58
2018-05-25T05:27:03.815Z,32.15
2018-05-25T05:28:03.535Z,32.25
2018-05-25T05:29:03.520Z,32.06
2018-05-25T05:30:03.777Z,32.06
2018-05-25T05:31:03.766Z,32.64
2018-05-25T05:32:03.492Z,32.64
2018-05-25T05:33:03.746Z,32.73
2018-05-25T05:34:03.468Z,32.82
2018-05-25T05:35:03.728Z,33.31
2018-05-25T05:36:03.441Z,33.4
2018-05-25T05:37:03.697Z,33.5
2018-05-25T05:38:03.424Z,33.78
2018-05-25T05:39:03.677Z,33.98
2018-05-25T05:40:03.670Z,33.98
2018-05-25T05:41:03.657Z,33.78
2018-05-25T05:42:03.649Z,34.07
2018-05-25T05:43:03.366Z,34.07
2018-05-25T05:44:03.750Z,34.27
2018-05-25T05:45:03.625Z,34.27
2018-05-25T05:46:03.605Z,34.17
2018-05-25T05:47:03.601Z,34.45
2018-05-25T05:48:03.313Z,34.45
2018-05-25T05:49:03.567Z,34.36
2018-05-25T05:50:03.558Z,34.38
2018-05-25T05:51:03.617Z,34.36
2018-05-25T05:52:03.535Z,34.19
2018-05-25T05:53:03.525Z,33.9
2018-05-25T05:54:03.511Z,34.47
2018-05-25T05:55:03.507Z,34.67
2018-05-25T05:56:03.498Z,34.86
2018-05-25T05:57:03.484Z,34.57
2018-05-25T05:58:03.473Z,34.38
2018-05-25T05:59:03.472Z,34.76
2018-05-25T06:00:03.456Z,34.57
2018-05-25T06:01:03.182Z,35.05
2018-05-25T06:02:03.426Z,35.45
2018-05-25T06:03:03.148Z,36.13
2018-05-25T06:04:03.407Z,36.32
2018-05-25T06:05:03.393Z,37.27
2018-05-25T06:06:03.389Z,36.99
2018-05-25T06:07:03.382Z,37.57
2018-05-25T06:08:03.099Z,38.62
2018-05-25T06:09:03.350Z,39.49
2018-05-25T06:10:03.079Z,39.7
2018-05-25T06:11:03.120Z,42.68
2018-05-25T06:12:03.055Z,44.99
2018-05-25T06:13:03.311Z,44.89
2018-05-25T06:14:03.308Z,45.18
2018-05-25T06:15:03.037Z,44.41
2018-05-25T06:16:03.030Z,44.41
2018-05-25T06:17:03.272Z,43.35
2018-05-25T06:18:02.994Z,45.76
2018-05-25T06:19:02.998Z,46.91
2018-05-25T06:20:03.358Z,46.43
2018-05-25T06:21:03.233Z,46.53
2018-05-25T06:22:03.226Z,48.07
2018-05-25T06:23:03.213Z,49.43
2018-05-25T06:24:03.199Z,48.83
2018-05-25T06:25:03.190Z,48.16
2018-05-25T06:26:02.916Z,48.47
2018-05-25T06:27:03.173Z,46.93
2018-05-25T06:28:03.095Z,46.84
2018-05-25T06:29:02.889Z,48.47
2018-05-25T06:30:02.880Z,48.38
2018-05-25T06:31:03.138Z,49.24
2018-05-25T06:32:03.124Z,49.43
2018-05-25T06:33:02.855Z,51.26
2018-05-25T06:34:02.838Z,52.32
2018-05-25T06:35:03.099Z,53.38
2018-05-25T06:36:03.080Z,52.61
2018-05-25T06:37:03.071Z,52.32
2018-05-25T06:38:03.059Z,52.32
2018-05-25T06:39:03.066Z,53.57
2018-05-25T06:40:03.040Z,52.22
2018-05-25T06:41:02.773Z,51.45
2018-05-25T06:42:02.760Z,51.07
2018-05-25T06:43:02.754Z,51.84
2018-05-25T06:44:02.745Z,50.49
2018-05-25T06:45:02.731Z,50.78
2018-05-25T06:46:02.986Z,50.59
2018-05-25T06:47:02.712Z,54.53
2018-05-25T06:48:02.966Z,55.3
2018-05-25T06:49:02.995Z,55.3
2018-05-25T06:50:02.684Z,55.68
2018-05-25T06:51:03.143Z,55.3
2018-05-25T06:52:02.931Z,54.63
2018-05-25T06:53:02.657Z,54.05
2018-05-25T06:54:02.913Z,53.57
2018-05-25T06:55:02.636Z,52.32
2018-05-25T06:56:02.894Z,51.84
2018-05-25T06:57:02.614Z,52.99
2018-05-25T06:58:02.627Z,52.32
2018-05-25T06:59:02.860Z,53.28
2018-05-25T07:00:02.849Z,55.01
2018-05-25T07:01:02.845Z,52.99
2018-05-25T07:02:02.836Z,52.06
2018-05-25T07:03:02.820Z,53.11
2018-05-25T07:04:02.892Z,53.21
2018-05-25T07:05:02.801Z,55.43
2018-05-25T07:06:02.529Z,54.94
2018-05-25T07:07:02.528Z,55.33
2018-05-25T07:08:02.780Z,55.33
2018-05-25T07:09:02.769Z,54.85
2018-05-25T07:10:02.491Z,55.71
2018-05-25T07:11:02.482Z,55.23
2018-05-25T07:12:02.739Z,58.02
2018-05-25T07:13:02.734Z,58.31
2018-05-25T07:14:02.731Z,58.6
2018-05-25T07:15:02.712Z,57.92
2018-05-25T07:16:02.701Z,58.89
2018-05-25T07:17:02.740Z,58.4
2018-05-25T07:18:02.681Z,60.24
2018-05-25T07:19:02.406Z,59.85
2018-05-25T07:20:02.667Z,58.5
2018-05-25T07:21:02.389Z,57.73
2018-05-25T07:22:02.643Z,56.29
2018-05-25T07:23:02.368Z,57.47
2018-05-25T07:24:02.365Z,56.6
2018-05-25T07:25:02.614Z,55.26
2018-05-25T07:26:02.349Z,55.55
2018-05-25T07:27:02.600Z,60.17
2018-05-25T07:28:02.591Z,58.63
2018-05-25T07:29:02.314Z,65.43
2018-05-25T07:30:02.572Z,73.79
2018-05-25T07:31:02.300Z,81.05
2018-05-25T07:32:02.559Z,84.42
2018-05-25T07:33:02.553Z,93.99
2018-05-25T07:34:02.283Z,96.98
2018-05-25T07:35:02.543Z,99.99
2018-05-25T07:36:02.532Z,99.99
2018-05-25T07:37:02.525Z,99.99
2018-05-25T07:38:02.254Z,99.99
2018-05-25T07:39:02.522Z,99.99
2018-05-25T07:40:02.248Z,99.99
2018-05-25T07:41:02.506Z,99.99
2018-05-25T07:42:02.495Z,99.66
2018-05-25T07:43:02.230Z,99.56
2018-05-25T07:44:02.491Z,97.66
2018-05-25T07:45:02.488Z,89.87
2018-05-25T07:46:02.226Z,89.97
2018-05-25T07:47:02.219Z,89.38
2018-05-25T07:48:02.481Z,95.17
2018-05-25T07:49:02.474Z,91.47
2018-05-25T07:50:02.477Z,89.28
2018-05-25T07:51:02.204Z,87.37
2018-05-25T07:52:02.466Z,88.15
2018-05-25T07:53:02.198Z,86.63
2018-05-25T07:54:02.457Z,82.52
2018-05-25T07:55:02.243Z,82.32
2018-05-25T07:56:02.455Z,81.84
2018-05-25T07:57:02.474Z,80.57
2018-05-25T07:58:02.450Z,79.39
2018-05-25T07:59:02.451Z,79.39
2018-05-25T08:00:02.448Z,79
2018-05-25T08:01:02.447Z,79.39
2018-05-25T08:02:02.445Z,80.08
2018-05-25T08:03:02.175Z,77.48
2018-05-25T08:04:02.453Z,77.77
2018-05-25T08:05:02.443Z,79
2018-05-25T08:06:02.443Z,80.18
2018-05-25T08:07:02.174Z,77.48
2018-05-25T08:08:02.174Z,78
2018-05-25T08:09:02.175Z,76.83
2018-05-25T08:10:02.436Z,75.17
2018-05-25T08:11:02.435Z,75.46
2018-05-25T08:12:02.524Z,77.06
2018-05-25T08:13:02.440Z,75.04
2018-05-25T08:14:02.205Z,71.91
2018-05-25T08:15:02.173Z,74.42
2018-05-25T08:16:02.443Z,73.9
2018-05-25T08:17:02.175Z,75.17
2018-05-25T08:18:02.441Z,75.78
2018-05-25T08:19:02.172Z,73.57
2018-05-25T08:20:02.439Z,73.41
2018-05-25T08:21:02.177Z,72.72
2018-05-25T08:22:02.580Z,72.08
2018-05-25T08:23:02.442Z,71.1
2018-05-25T08:24:02.179Z,70.8
2018-05-25T08:25:02.434Z,73.25
2018-05-25T08:26:02.441Z,71.72
2018-05-25T08:27:02.458Z,73.64
2018-05-25T08:28:02.641Z,73.44
2018-05-25T08:29:02.442Z,71.13
2018-05-25T08:30:02.442Z,71.81
2018-05-25T08:31:02.454Z,70.35
2018-05-25T08:32:02.188Z,71.42
2018-05-25T08:33:02.447Z,71.03
2018-05-25T08:34:02.448Z,74.81
2018-05-25T08:35:02.450Z,75.52
2018-05-25T08:36:02.452Z,74.12
2018-05-25T08:37:02.458Z,76.29
2018-05-25T08:38:02.451Z,79.39
2018-05-25T08:39:02.453Z,83.31
2018-05-25T08:40:02.456Z,91.34
2018-05-25T08:41:02.454Z,99.07
2018-05-25T08:42:02.193Z,99.99
2018-05-25T08:43:02.460Z,99.99
2018-05-25T08:44:02.465Z,99.99
2018-05-25T08:45:02.453Z,99.99
2018-05-25T08:46:02.452Z,99.99
2018-05-25T08:47:02.449Z,99.99
2018-05-25T08:48:02.185Z,99.99
2018-05-25T08:49:02.447Z,99.99
2018-05-25T08:50:02.185Z,99.99
2018-05-25T08:51:02.181Z,99.99
2018-05-25T08:52:02.182Z,99.99
2018-05-25T08:53:02.175Z,99.99
2018-05-25T08:54:02.430Z,99.99
2018-05-25T08:55:02.209Z,99.99
2018-05-25T08:56:02.428Z,99.99
2018-05-25T08:57:02.166Z,99.99
2018-05-25T08:58:02.421Z,99.99
2018-05-25T08:59:02.151Z,99.99
2018-05-25T09:00:02.414Z,99.99
2018-05-25T09:01:02.410Z,99.99
2018-05-25T09:02:02.152Z,99.99
2018-05-25T09:03:02.136Z,99.99
2018-05-25T09:04:02.132Z,99.99
2018-05-25T09:05:02.394Z,99.99
2018-05-25T09:06:02.126Z,99.99
2018-05-25T09:07:02.403Z,99.99
2018-05-25T09:08:02.383Z,99.99
2018-05-25T09:09:02.118Z,99.99
2018-05-25T09:10:02.379Z,99.99
2018-05-25T09:11:02.378Z,99.99
2018-05-25T09:12:02.369Z,99.99
2018-05-25T09:13:02.367Z,99.99
2018-05-25T09:14:02.361Z,99.99
2018-05-25T09:15:02.099Z,99.99
2018-05-25T09:16:02.094Z,99.99
2018-05-25T09:17:02.352Z,99.99
2018-05-25T09:18:02.344Z,99.99
2018-05-25T09:19:02.075Z,99.99
2018-05-25T09:20:02.355Z,99.99
2018-05-25T09:21:02.068Z,99.99
2018-05-25T09:22:02.067Z,99.99
2018-05-25T09:23:02.064Z,99.99
2018-05-25T09:24:02.065Z,99.99
2018-05-25T09:25:02.061Z,99.99
2018-05-25T09:26:02.314Z,99.99
2018-05-25T09:27:02.309Z,99.99
2018-05-25T09:28:02.301Z,99.99
2018-05-25T09:29:02.035Z,99.99
2018-05-25T09:30:02.304Z,99.99
2018-05-25T09:31:02.297Z,99.99
2018-05-25T09:32:02.287Z,99.99
2018-05-25T09:33:02.018Z,99.99
2018-05-25T09:34:02.281Z,99.99
2018-05-25T09:35:02.274Z,99.99
2018-05-25T09:36:02.288Z,99.99
2018-05-25T09:37:02.266Z,99.99
2018-05-25T09:38:02.000Z,99.99
2018-05-25T09:39:02.281Z,99.99
2018-05-25T09:40:02.261Z,99.99
2018-05-25T09:41:02.262Z,99.99
2018-05-25T09:42:02.250Z,99.99
2018-05-25T09:43:01.983Z,99.99
2018-05-25T09:44:01.979Z,99.99
2018-05-25T09:45:01.973Z,99.99
2018-05-25T09:46:01.970Z,99.99
2018-05-25T09:47:01.965Z,99.99
2018-05-25T09:48:01.964Z,99.99
2018-05-25T09:49:02.231Z,99.99
2018-05-25T09:50:02.221Z,99.99
2018-05-25T09:51:02.219Z,99.99
2018-05-25T09:52:02.216Z,99.99
2018-05-25T09:53:02.214Z,99.99
2018-05-25T09:54:02.214Z,99.99
2018-05-25T09:55:01.941Z,99.99
2018-05-25T09:56:02.273Z,99.99
2018-05-25T09:57:01.935Z,99.99
2018-05-25T09:58:01.926Z,99.99
2018-05-25T09:59:02.188Z,99.99
2018-05-25T10:00:02.193Z,99.99
2018-05-25T10:01:02.197Z,99.99
2018-05-25T10:02:01.918Z,99.99
2018-05-25T10:03:01.908Z,99.99
2018-05-25T10:04:02.180Z,99.99
2018-05-25T10:05:01.919Z,99.99
2018-05-25T10:06:02.164Z,99.99
2018-05-25T10:07:01.901Z,99.99
2018-05-25T10:08:02.171Z,99.99
2018-05-25T10:09:02.162Z,99.99
2018-05-25T10:10:01.897Z,99.99
2018-05-25T10:11:02.158Z,99.99
2018-05-25T10:12:02.145Z,99.99
2018-05-25T10:13:02.148Z,99.99
2018-05-25T10:14:01.880Z,99.99
2018-05-25T10:15:02.139Z,99.99
2018-05-25T10:16:01.884Z,99.99
2018-05-25T10:17:01.877Z,99.99
2018-05-25T10:18:02.219Z,99.99
2018-05-25T10:19:02.130Z,99.99
2018-05-25T10:20:02.145Z,99.99
2018-05-25T10:21:02.129Z,99.99
2018-05-25T10:22:01.854Z,99.99
2018-05-25T10:23:02.131Z,99.99
2018-05-25T10:24:02.134Z,99.99
2018-05-25T10:25:01.844Z,99.99
2018-05-25T10:26:01.839Z,99.99
2018-05-25T10:27:02.105Z,99.99
2018-05-25T10:28:02.304Z,99.99
2018-05-25T10:29:01.836Z,99.99
2018-05-25T10:30:02.097Z,99.99
2018-05-25T10:31:02.102Z,99.99
2018-05-25T10:32:02.094Z,99.99
2018-05-25T10:33:02.096Z,99.95
2018-05-25T10:34:01.825Z,99.99
2018-05-25T10:35:02.117Z,97.91
2018-05-25T10:36:02.089Z,98.2
2018-05-25T10:37:02.077Z,99.7
2018-05-25T10:38:01.814Z,99.99
2018-05-25T10:39:01.813Z,99.65
2018-05-25T10:40:02.071Z,98.58
2018-05-25T10:41:02.168Z,97.96
2018-05-25T10:42:01.817Z,93.92
2018-05-25T10:43:01.797Z,90.45
2018-05-25T10:44:02.073Z,88.75
2018-05-25T10:45:01.802Z,83.95
2018-05-25T10:46:02.067Z,82.98
2018-05-25T10:47:01.805Z,87.29
2018-05-25T10:48:02.059Z,86.76
2018-05-25T10:49:02.061Z,87.82
2018-05-25T10:50:02.058Z,90.26
2018-05-25T10:51:02.072Z,88.41
2018-05-25T10:52:02.061Z,90.12
2018-05-25T10:53:01.801Z,87.98
2018-05-25T10:54:01.807Z,90.06
2018-05-25T10:55:02.060Z,89.19
2018-05-25T10:56:02.266Z,88.41
2018-05-25T10:57:01.800Z,91.04
2018-05-25T10:58:02.061Z,87.59
2018-05-25T10:59:02.070Z,88.37
2018-05-25T11:00:01.798Z,86.81
2018-05-25T11:01:01.797Z,87.82
2018-05-25T11:02:02.063Z,88.31
2018-05-25T11:03:02.061Z,85.29
2018-05-25T11:04:02.068Z,87.01
2018-05-25T11:05:02.068Z,90.36
2018-05-25T11:06:02.067Z,90.17
2018-05-25T11:07:02.074Z,94.7
2018-05-25T11:08:02.066Z,94.31
2018-05-25T11:09:01.793Z,95.14
2018-05-25T11:10:02.204Z,96.69
2018-05-25T11:11:01.793Z,96.06
2018-05-25T11:12:01.791Z,98.97
2018-05-25T11:13:01.787Z,95.48
2018-05-25T11:14:01.789Z,94.85
2018-05-25T11:15:02.053Z,97.66
2018-05-25T11:16:01.781Z,96.36
2018-05-25T11:17:02.054Z,97.13
2018-05-25T11:18:02.042Z,99.99
2018-05-25T11:19:02.045Z,99.99
2018-05-25T11:20:02.045Z,99.99
2018-05-25T11:21:01.811Z,99.99
2018-05-25T11:22:02.048Z,99.99
2018-05-25T11:23:01.767Z,99.99
2018-05-25T11:24:01.790Z,99.99
2018-05-25T11:25:02.030Z,99.99
2018-05-25T11:26:02.051Z,99.99
2018-05-25T11:27:02.076Z,99.99
2018-05-25T11:28:02.013Z,99.99
2018-05-25T11:29:02.010Z,99.99
2018-05-25T11:30:02.010Z,99.99
2018-05-25T11:31:01.737Z,99.99
2018-05-25T11:32:01.998Z,99.99
2018-05-25T11:33:01.787Z,99.99
2018-05-25T11:34:01.726Z,99.17
2018-05-25T11:35:02.003Z,99.99
2018-05-25T11:36:01.987Z,99.99
2018-05-25T11:37:02.020Z,99.99
2018-05-25T11:38:01.983Z,99.99
2018-05-25T11:39:01.711Z,99.99
2018-05-25T11:40:01.975Z,99.99
2018-05-25T11:41:01.710Z,99.99
2018-05-25T11:42:01.980Z,99.99
2018-05-25T11:43:01.690Z,99.99
2018-05-25T11:44:01.964Z,99.99
2018-05-25T11:45:01.949Z,99.99
2018-05-25T11:46:01.954Z,99.99
2018-05-25T11:47:01.939Z,99.99
2018-05-25T11:48:01.936Z,99.99
2018-05-25T11:49:01.672Z,99.99
2018-05-25T11:50:01.934Z,99.99
2018-05-25T11:51:01.663Z,99.99
2018-05-25T11:52:01.665Z,99.99
2018-05-25T11:53:02.008Z,99.99
2018-05-25T11:54:01.914Z,99.99
2018-05-25T11:55:01.645Z,99.99
2018-05-25T11:56:01.910Z,99.99
2018-05-25T11:57:01.896Z,99.99
2018-05-25T11:58:01.896Z,99.99
2018-05-25T11:59:01.622Z,99.99
2018-05-25T12:00:01.618Z,99.99
2018-05-25T12:01:01.878Z,99.99
2018-05-25T12:02:01.610Z,99.99
2018-05-25T12:03:01.602Z,99.99
2018-05-25T12:04:01.889Z,99.99
2018-05-25T12:05:01.863Z,99.99
2018-05-25T12:06:01.592Z,99.99
2018-05-25T12:07:01.853Z,99.99
2018-05-25T12:08:01.586Z,99.99
2018-05-25T12:09:01.842Z,99.99
2018-05-25T12:10:01.574Z,99.99
2018-05-25T12:11:01.568Z,99.99
2018-05-25T12:12:01.832Z,99.99
2018-05-25T12:13:01.821Z,99.99
2018-05-25T12:14:01.554Z,99.99
2018-05-25T12:15:01.820Z,99.99
2018-05-25T12:16:01.818Z,99.99
2018-05-25T12:17:01.808Z,99.99
2018-05-25T12:18:01.534Z,99.99
2018-05-25T12:19:01.862Z,99.99
2018-05-25T12:20:01.800Z,99.99
2018-05-25T12:21:01.791Z,99.99
2018-05-25T12:22:01.786Z,99.99
2018-05-25T12:23:01.513Z,99.99
2018-05-25T12:24:01.780Z,99.99
2018-05-25T12:25:01.506Z,99.99
2018-05-25T12:26:01.499Z,99.99
2018-05-25T12:27:01.773Z,99.99
2018-05-25T12:28:01.494Z,99.99
2018-05-25T12:29:01.485Z,99.99
2018-05-25T12:30:01.490Z,99.99
2018-05-25T12:31:01.756Z,99.99
2018-05-25T12:32:01.738Z,99.99
2018-05-25T12:33:01.745Z,99.99
2018-05-25T12:34:01.729Z,99.99
2018-05-25T12:35:01.734Z,99.99
2018-05-25T12:36:01.729Z,99.99
2018-05-25T12:37:01.719Z,99.99
2018-05-25T12:38:01.717Z,99.99
2018-05-25T12:39:01.445Z,99.99
2018-05-25T12:40:01.435Z,99.99
2018-05-25T12:41:01.436Z,99.99
2018-05-25T12:42:01.693Z,99.99
2018-05-25T12:43:01.422Z,99.99
2018-05-25T12:44:01.415Z,99.99
2018-05-25T12:45:01.684Z,99.99
2018-05-25T12:46:01.415Z,99.99
2018-05-25T12:47:01.409Z,99.99
2018-05-25T12:48:01.399Z,99.99
2018-05-25T12:49:01.661Z,99.99
2018-05-25T12:50:01.669Z,99.99
2018-05-25T12:51:01.393Z,99.99
2018-05-25T12:52:01.653Z,99.99
2018-05-25T12:53:01.379Z,99.99
2018-05-25T12:54:01.645Z,99.99